Time;durP1;ratioP1;P1;durP2;ratioP2;P2;SDS_P1;SDS_P2;PMS_P1;PMS_P2;Temp;Humidity;BMP_temperature;BMP_pressure;BME280_temperature;BME280_humidity;BME280_pressure;Samples;Min_cycle;Max_cycle;Signal;HPM_P1;HPM_P2
2022/08/25 00:00:41;;;;;;;7.60;5.07;;;21.00;99.90;;;;;;5058304;28;20052;-71
2022/08/25 00:03:07;;;;;;;8.23;4.80;;;20.90;99.90;;;;;;5059655;28;20286;-72
2022/08/25 00:05:33;;;;;;;7.70;5.28;;;20.90;99.90;;;;;;5077662;28;20456;-71
2022/08/25 00:07:59;;;;;;;5.85;5.07;;;20.90;99.90;;;;;;5059596;28;20044;-72
2022/08/25 00:10:25;;;;;;;7.25;4.80;;;20.80;99.90;;;;;;5056450;28;20135;-72
2022/08/25 00:12:51;;;;;;;5.25;4.57;;;20.80;99.90;;;;;;5060096;28;20041;-72
2022/08/25 00:15:17;;;;;;;6.68;5.22;;;20.80;99.90;;;;;;5055697;28;20480;-72
2022/08/25 00:17:43;;;;;;;6.57;4.72;;;20.80;99.90;;;;;;5055498;28;20075;-72
2022/08/25 00:20:09;;;;;;;7.80;4.90;;;20.70;99.90;;;;;;5049831;28;20477;-72
2022/08/25 00:22:34;;;;;;;5.82;4.70;;;20.70;99.90;;;;;;5052077;28;20067;-72
2022/08/25 00:25:00;;;;;;;7.47;4.57;;;20.70;99.90;;;;;;5058983;28;20380;-73
2022/08/25 00:27:26;;;;;;;7.38;4.75;;;20.60;99.90;;;;;;5056602;28;20047;-72
2022/08/25 00:29:52;;;;;;;7.10;4.55;;;20.60;99.90;;;;;;5072418;28;20029;-72
2022/08/25 00:32:18;;;;;;;5.47;4.18;;;20.60;99.90;;;;;;5053569;28;20075;-72
2022/08/25 00:34:44;;;;;;;7.15;4.47;;;20.50;99.90;;;;;;5057598;28;20068;-72
2022/08/25 00:37:10;;;;;;;5.15;4.72;;;20.50;99.90;;;;;;5052532;28;20040;-71
2022/08/25 00:39:37;;;;;;;5.30;4.75;;;20.40;99.90;;;;;;5049091;28;20040;-72
2022/08/25 00:42:05;;;;;;;7.07;4.82;;;20.40;99.90;;;;;;5032915;28;20028;-72
2022/08/25 00:44:32;;;;;;;6.47;4.55;;;20.30;99.90;;;;;;5052276;28;20044;-71
2022/08/25 00:47:00;;;;;;;7.32;4.28;;;20.30;99.90;;;;;;5057514;28;20044;-71
2022/08/25 00:49:46;;;;;;;10.48;4.97;;;20.20;99.90;;;;;;5055137;28;20516;-71
2022/08/25 00:52:49;;;;;;;7.53;3.97;;;20.20;99.90;;;;;;5035470;28;20049;-71
2022/08/25 00:55:25;;;;;;;5.10;3.88;;;20.20;99.90;;;;;;4976237;28;20050;-71
2022/08/25 00:58:00;;;;;;;6.80;4.43;;;20.10;99.90;;;;;;5040726;28;20053;-71
2022/08/25 01:00:31;;;;;;;5.40;4.10;;;20.10;99.90;;;;;;5046975;28;20058;-69
2022/08/25 01:02:58;;;;;;;5.93;4.00;;;20.10;99.90;;;;;;5041008;28;20055;-68
2022/08/25 01:05:25;;;;;;;7.32;4.30;;;20.00;99.90;;;;;;5048256;28;20044;-69
2022/08/25 01:07:51;;;;;;;5.55;4.03;;;20.10;99.90;;;;;;5038812;28;20508;-69
2022/08/25 01:10:18;;;;;;;6.78;3.80;;;20.00;99.90;;;;;;5047746;28;20048;-69
2022/08/25 01:12:44;;;;;;;6.80;3.50;;;20.00;99.90;;;;;;5047149;28;20107;-69
2022/08/25 01:15:11;;;;;;;4.60;3.85;;;19.90;99.90;;;;;;5043110;28;20150;-68
2022/08/25 01:17:50;;;;;;;6.32;3.47;;;19.90;99.90;;;;;;5045157;28;20029;-69
2022/08/25 01:20:18;;;;;;;6.50;3.00;;;19.90;99.90;;;;;;5031805;28;20467;-68
2022/08/25 01:22:44;;;;;;;6.13;3.28;;;19.80;99.90;;;;;;5046094;28;20033;-69
2022/08/25 01:25:46;;;;;;;6.57;2.95;;;19.80;99.90;;;;;;5043620;28;20044;-68
2022/08/25 01:28:12;;;;;;;5.65;3.40;;;19.80;99.90;;;;;;5048502;28;20041;-70
2022/08/25 01:30:39;;;;;;;5.80;3.00;;;19.70;99.90;;;;;;5059224;28;20066;-69
2022/08/25 01:33:07;;;;;;;6.60;3.67;;;19.80;99.90;;;;;;5043729;28;20043;-69
2022/08/25 01:35:34;;;;;;;8.15;3.38;;;19.80;99.90;;;;;;5039816;28;20059;-69
2022/08/25 01:38:01;;;;;;;5.80;3.05;;;19.80;99.90;;;;;;5023071;28;20109;-69
2022/08/25 01:40:27;;;;;;;3.78;3.20;;;19.80;99.90;;;;;;5047259;28;20046;-69
2022/08/25 01:43:06;;;;;;;9.35;3.10;;;19.70;99.90;;;;;;5049687;28;20040;-69
2022/08/25 01:45:33;;;;;;;7.55;3.33;;;19.70;99.90;;;;;;5046822;28;20131;-69
2022/08/25 01:47:58;;;;;;;5.32;3.22;;;19.70;99.90;;;;;;5048987;28;20124;-67
2022/08/25 01:50:24;;;;;;;5.18;2.70;;;19.60;99.90;;;;;;5054714;28;20135;-66
2022/08/25 01:53:03;;;;;;;4.18;3.00;;;19.60;99.90;;;;;;5042955;28;20364;-69
2022/08/25 01:55:50;;;;;;;3.63;2.78;;;19.60;99.90;;;;;;5051399;28;20196;-68
2022/08/25 01:58:23;;;;;;;4.70;2.60;;;19.70;99.90;;;;;;5045827;28;21206;-69
2022/08/25 02:00:53;;;;;;;5.10;3.10;;;19.60;99.90;;;;;;5048671;28;20052;-70
2022/08/25 02:03:19;;;;;;;6.55;3.13;;;19.60;99.90;;;;;;5046191;28;20040;-67
2022/08/25 02:05:45;;;;;;;5.93;3.10;;;19.60;99.90;;;;;;5049540;28;20075;-69
2022/08/25 02:08:11;;;;;;;5.57;2.95;;;19.50;99.90;;;;;;5048709;28;20044;-68
2022/08/25 02:10:39;;;;;;;3.33;2.65;;;19.60;99.90;;;;;;5062997;28;20056;-68
2022/08/25 02:13:06;;;;;;;3.85;2.70;;;19.50;99.90;;;;;;5050066;28;20114;-68
2022/08/25 02:15:32;;;;;;;3.97;2.55;;;19.50;99.90;;;;;;5031475;28;20504;-68
2022/08/25 02:17:58;;;;;;;6.32;2.85;;;19.50;99.90;;;;;;5045183;28;20040;-68
2022/08/25 02:20:25;;;;;;;3.75;2.65;;;19.50;99.90;;;;;;5027716;28;20480;-68
2022/08/25 02:22:51;;;;;;;4.65;2.50;;;19.50;99.90;;;;;;5050635;28;20041;-68
2022/08/25 02:25:18;;;;;;;5.32;3.20;;;19.50;99.90;;;;;;5051014;28;20040;-68
2022/08/25 02:27:45;;;;;;;7.80;2.40;;;19.50;99.90;;;;;;5048687;28;20127;-68
2022/08/25 02:30:12;;;;;;;6.20;2.95;;;19.50;99.90;;;;;;5044940;28;20041;-67
2022/08/25 02:32:39;;;;;;;4.97;2.63;;;19.50;99.90;;;;;;5034087;28;20122;-67
2022/08/25 02:35:06;;;;;;;3.50;2.20;;;19.50;99.90;;;;;;5046722;28;20638;-68
2022/08/25 02:37:32;;;;;;;7.82;2.90;;;19.50;99.90;;;;;;5047382;28;20412;-68
2022/08/25 02:39:58;;;;;;;7.47;2.63;;;19.50;99.90;;;;;;5045982;28;20032;-67
2022/08/25 02:42:25;;;;;;;9.05;2.72;;;19.50;99.90;;;;;;5045628;28;20119;-67
2022/08/25 02:44:50;;;;;;;5.40;2.35;;;19.40;99.90;;;;;;5041399;28;20409;-67
2022/08/25 02:47:16;;;;;;;5.55;2.38;;;19.40;99.90;;;;;;5050266;28;20052;-68
2022/08/25 02:49:42;;;;;;;4.50;2.28;;;19.40;99.90;;;;;;5028793;28;20111;-68
2022/08/25 02:52:08;;;;;;;5.43;2.30;;;19.40;99.90;;;;;;5048086;28;20066;-68
2022/08/25 02:54:35;;;;;;;6.78;2.58;;;19.40;99.90;;;;;;5045838;28;20033;-67
2022/08/25 02:57:00;;;;;;;8.02;2.40;;;19.30;99.90;;;;;;5042425;28;20041;-67
2022/08/25 02:59:26;;;;;;;3.72;2.28;;;19.30;99.90;;;;;;5044201;28;20401;-67
2022/08/25 03:01:52;;;;;;;5.28;2.35;;;19.30;99.90;;;;;;5043659;28;20036;-67
2022/08/25 03:04:18;;;;;;;8.25;2.80;;;19.30;99.90;;;;;;5040229;28;20353;-68
2022/08/25 03:06:45;;;;;;;5.88;2.15;;;19.30;99.90;;;;;;5028801;28;20080;-68
2022/08/25 03:09:11;;;;;;;5.45;2.80;;;19.30;99.90;;;;;;5039677;28;20044;-68
2022/08/25 03:11:37;;;;;;;7.07;2.50;;;19.20;99.90;;;;;;5030716;28;20388;-67
2022/08/25 03:14:04;;;;;;;5.50;2.67;;;19.20;99.90;;;;;;5035848;28;20384;-69
2022/08/25 03:16:30;;;;;;;5.28;2.30;;;19.20;99.90;;;;;;5045741;28;20151;-67
2022/08/25 03:18:58;;;;;;;6.68;2.13;;;19.10;99.90;;;;;;5049252;28;20391;-68
2022/08/25 03:21:25;;;;;;;6.15;2.50;;;19.10;99.90;;;;;;5046971;28;20377;-67
2022/08/25 03:23:50;;;;;;;5.40;2.35;;;19.10;99.90;;;;;;5049743;28;20044;-68
2022/08/25 03:29:04;;;;;;;6.10;2.80;;;19.10;99.90;;;;;;5042365;28;20114;-68
2022/08/25 03:31:31;;;;;;;3.28;2.72;;;19.00;99.90;;;;;;5044255;28;20080;-67
2022/08/25 03:33:58;;;;;;;4.40;2.25;;;19.00;99.90;;;;;;5050647;28;20070;-68
2022/08/25 03:36:24;;;;;;;6.28;2.60;;;19.00;99.90;;;;;;5046316;28;20045;-68
2022/08/25 03:38:51;;;;;;;3.15;2.42;;;18.90;99.90;;;;;;5044194;28;20048;-67
2022/08/25 03:41:20;;;;;;;6.03;2.53;;;18.90;99.90;;;;;;5050365;28;20126;-68
2022/08/25 03:43:46;;;;;;;8.60;2.33;;;18.90;99.90;;;;;;5048650;28;20166;-68
2022/08/25 03:46:42;;;;;;;4.75;2.58;;;18.90;99.90;;;;;;5043323;28;20090;-67
2022/08/25 03:49:11;;;;;;;6.00;2.50;;;18.90;99.90;;;;;;5015450;28;20061;-68
2022/08/25 03:51:41;;;;;;;5.32;2.50;;;18.90;99.90;;;;;;5048841;28;20044;-68
2022/08/25 03:54:09;;;;;;;5.43;2.38;;;18.80;99.90;;;;;;5032257;28;20048;-67
2022/08/25 03:56:35;;;;;;;7.03;2.55;;;18.80;99.90;;;;;;5045641;28;20036;-69
2022/08/25 03:59:02;;;;;;;5.22;2.50;;;18.90;99.90;;;;;;5040634;28;20086;-68
2022/08/25 04:01:28;;;;;;;4.32;2.20;;;18.90;99.90;;;;;;5045489;28;20474;-67
2022/08/25 04:03:54;;;;;;;7.13;2.78;;;18.80;99.90;;;;;;5048064;28;20053;-67
2022/08/25 04:06:20;;;;;;;9.63;2.67;;;18.80;99.90;;;;;;5044150;28;20076;-68
2022/08/25 04:08:45;;;;;;;5.55;2.38;;;18.80;99.90;;;;;;5049084;28;20040;-67
2022/08/25 04:11:17;;;;;;;3.85;2.67;;;18.70;99.90;;;;;;5044336;28;20119;-68
2022/08/25 04:13:46;;;;;;;7.95;2.72;;;18.70;99.90;;;;;;5049463;28;20041;-68
2022/08/25 04:16:14;;;;;;;7.85;2.42;;;18.70;99.90;;;;;;5036756;28;20045;-68
2022/08/25 04:18:41;;;;;;;7.47;3.08;;;18.70;99.90;;;;;;5051576;28;20027;-67
2022/08/25 04:21:08;;;;;;;7.40;3.00;;;18.60;99.90;;;;;;5050722;28;20174;-68
2022/08/25 04:23:39;;;;;;;5.97;2.67;;;18.60;99.90;;;;;;5048007;28;20032;-68
2022/08/25 04:26:18;;;;;;;6.40;3.30;;;18.60;99.90;;;;;;5061478;28;20045;-67
2022/08/25 04:28:45;;;;;;;9.70;6.07;;;18.50;99.90;;;;;;5046996;28;20504;-68
2022/08/25 04:31:13;;;;;;;8.25;4.30;;;18.50;99.90;;;;;;5044845;28;20057;-67
2022/08/25 04:33:40;;;;;;;5.70;2.78;;;18.50;99.90;;;;;;5046059;28;20032;-67
2022/08/25 04:36:08;;;;;;;5.15;3.05;;;18.50;99.90;;;;;;5026657;28;20048;-68
2022/08/25 04:38:34;;;;;;;4.85;3.00;;;18.50;99.90;;;;;;5046157;28;20077;-67
2022/08/25 04:41:06;;;;;;;4.28;2.92;;;18.50;99.90;;;;;;5037101;28;20172;-67
2022/08/25 04:43:32;;;;;;;6.47;2.70;;;18.40;99.90;;;;;;5042959;28;20106;-67
2022/08/25 04:46:04;;;;;;;9.05;2.92;;;18.40;99.90;;;;;;5030642;28;20127;-67
2022/08/25 04:48:30;;;;;;;5.40;2.83;;;18.40;99.90;;;;;;5039416;28;20048;-67
2022/08/25 04:50:55;;;;;;;7.32;3.22;;;18.50;99.90;;;;;;5043118;28;20041;-67
2022/08/25 04:53:21;;;;;;;6.07;3.22;;;18.50;99.90;;;;;;5043836;28;20052;-67
2022/08/25 04:55:47;;;;;;;5.53;3.05;;;18.50;99.90;;;;;;5043833;28;20059;-68
2022/08/25 04:58:15;;;;;;;4.75;2.65;;;18.50;99.90;;;;;;5041294;28;20051;-68
2022/08/25 05:00:41;;;;;;;6.10;4.28;;;18.50;99.90;;;;;;5044526;28;20131;-68
2022/08/25 05:03:07;;;;;;;7.45;3.80;;;18.60;99.90;;;;;;5039259;28;20045;-67
2022/08/25 05:05:36;;;;;;;4.97;3.30;;;18.60;99.90;;;;;;5042570;28;20032;-68
2022/08/25 05:08:02;;;;;;;6.75;2.92;;;18.60;99.90;;;;;;5038766;28;20474;-68
2022/08/25 05:10:28;;;;;;;4.78;2.50;;;18.60;99.90;;;;;;5040827;28;20080;-68
2022/08/25 05:12:54;;;;;;;4.60;2.92;;;18.70;99.90;;;;;;5055123;28;20213;-69
2022/08/25 05:18:04;;;;;;;4.05;2.33;;;18.70;99.90;;;;;;5045482;28;20048;-69
2022/08/25 05:20:32;;;;;;;4.03;2.60;;;18.70;99.90;;;;;;5042402;28;20037;-69
2022/08/25 05:22:58;;;;;;;6.95;3.63;;;18.70;99.90;;;;;;5044145;28;20186;-68
2022/08/25 05:25:24;;;;;;;8.52;4.15;;;18.80;99.90;;;;;;5048825;28;20135;-69
2022/08/25 05:27:49;;;;;;;6.72;2.70;;;18.80;99.90;;;;;;5049201;28;20040;-68
2022/08/25 05:30:15;;;;;;;4.10;2.40;;;18.90;99.90;;;;;;5037718;28;20045;-68
2022/08/25 05:32:41;;;;;;;7.35;2.70;;;18.90;99.90;;;;;;5043670;28;20055;-68
2022/08/25 05:35:07;;;;;;;4.38;2.22;;;19.00;99.90;;;;;;5041731;28;20048;-68
2022/08/25 05:37:33;;;;;;;5.65;2.60;;;19.10;99.90;;;;;;5041263;28;20062;-67
2022/08/25 05:39:59;;;;;;;7.43;2.67;;;19.30;99.90;;;;;;5059620;28;20036;-68
2022/08/25 05:42:27;;;;;;;5.15;2.92;;;19.60;99.90;;;;;;5032831;28;20527;-68
2022/08/25 05:44:54;;;;;;;5.90;2.50;;;19.80;99.90;;;;;;5043554;28;20483;-69
2022/08/25 05:47:20;;;;;;;3.47;2.42;;;20.00;99.90;;;;;;5043972;28;20041;-68
2022/08/25 05:49:46;;;;;;;5.57;2.90;;;20.30;99.90;;;;;;5064991;28;20044;-69
2022/08/25 05:52:11;;;;;;;5.25;2.97;;;20.60;99.90;;;;;;5045345;28;20091;-68
2022/08/25 05:54:38;;;;;;;5.35;2.42;;;20.70;99.90;;;;;;5054726;28;20037;-68
2022/08/25 05:57:05;;;;;;;6.47;2.70;;;20.70;99.90;;;;;;5042215;28;20048;-68
2022/08/25 05:59:30;;;;;;;4.93;2.67;;;20.60;99.90;;;;;;5041769;28;20056;-68
2022/08/25 06:04:40;;;;;;;4.45;2.70;;;20.50;99.90;;;;;;5043269;28;20408;-68
2022/08/25 06:07:06;;;;;;;5.72;3.25;;;20.40;99.90;;;;;;5045769;28;20195;-69
2022/08/25 06:09:31;;;;;;;5.70;3.00;;;20.40;99.90;;;;;;5063887;28;20036;-67
2022/08/25 06:11:57;;;;;;;6.43;3.20;;;20.40;99.90;;;;;;5030176;28;20468;-68
2022/08/25 06:14:24;;;;;;;6.03;3.00;;;20.40;99.90;;;;;;5042664;28;20519;-69
2022/08/25 06:16:50;;;;;;;6.93;2.83;;;20.40;99.90;;;;;;5043648;28;20054;-69
2022/08/25 06:19:16;;;;;;;7.95;3.30;;;20.50;99.90;;;;;;5043024;28;20174;-68
2022/08/25 06:21:43;;;;;;;9.55;3.03;;;20.50;99.90;;;;;;5040134;28;20076;-68
2022/08/25 06:24:09;;;;;;;6.32;2.90;;;20.50;99.90;;;;;;5041167;28;20037;-68
2022/08/25 06:26:36;;;;;;;7.00;3.22;;;20.60;99.90;;;;;;5054130;28;20135;-67
2022/08/25 06:29:02;;;;;;;4.93;3.10;;;20.60;99.90;;;;;;5029658;28;20060;-69
2022/08/25 06:31:28;;;;;;;8.13;3.28;;;20.70;99.90;;;;;;5044208;28;20063;-68
2022/08/25 06:33:54;;;;;;;5.78;3.38;;;20.80;99.90;;;;;;5052990;28;20388;-68
2022/08/25 06:36:20;;;;;;;7.00;3.10;;;20.90;99.90;;;;;;5067709;28;20037;-68
2022/08/25 06:38:46;;;;;;;8.02;3.17;;;21.00;99.90;;;;;;5051398;28;20036;-68
2022/08/25 06:41:12;;;;;;;7.93;3.28;;;21.10;99.90;;;;;;5038841;28;20076;-68
2022/08/25 06:43:41;;;;;;;8.98;3.13;;;21.20;99.90;;;;;;5034065;28;20076;-67
2022/08/25 06:46:12;;;;;;;7.72;3.25;;;21.30;99.90;;;;;;5052633;28;20141;-67
2022/08/25 06:48:38;;;;;;;7.47;3.13;;;21.40;99.90;;;;;;5046655;28;20405;-67
2022/08/25 06:51:10;;;;;;;8.13;3.30;;;21.50;99.90;;;;;;5048091;28;20052;-67
2022/08/25 06:53:36;;;;;;;8.77;3.10;;;21.60;99.90;;;;;;5046982;28;20051;-67
2022/08/25 06:56:03;;;;;;;10.70;3.92;;;21.80;99.90;;;;;;5065174;28;20033;-68
2022/08/25 06:58:29;;;;;;;6.80;3.17;;;21.90;99.90;;;;;;5046598;28;20051;-68
2022/08/25 07:00:55;;;;;;;5.82;3.38;;;22.00;99.90;;;;;;5042678;28;20052;-68
2022/08/25 07:03:21;;;;;;;5.63;3.15;;;22.10;99.90;;;;;;5063752;28;20069;-68
2022/08/25 07:05:55;;;;;;;8.65;3.58;;;22.20;99.40;;;;;;5037725;28;20056;-67
2022/08/25 07:08:22;;;;;;;7.80;3.30;;;22.30;99.90;;;;;;5043686;28;20048;-68
2022/08/25 07:10:48;;;;;;;7.18;3.35;;;22.40;99.60;;;;;;5047104;28;20105;-68
2022/08/25 07:13:14;;;;;;;4.82;2.97;;;22.60;99.90;;;;;;5045042;28;20401;-68
2022/08/25 07:15:42;;;;;;;5.80;3.28;;;22.80;99.50;;;;;;5063009;28;20044;-68
2022/08/25 07:18:08;;;;;;;5.82;2.80;;;22.90;99.60;;;;;;5048707;28;20052;-68
2022/08/25 07:20:35;;;;;;;8.85;2.95;;;23.10;99.20;;;;;;5047574;28;20052;-68
2022/08/25 07:23:01;;;;;;;6.05;3.38;;;23.20;99.10;;;;;;5061455;28;20376;-68
2022/08/25 07:25:27;;;;;;;6.00;3.33;;;23.40;98.80;;;;;;5048213;28;20047;-68
2022/08/25 07:27:53;;;;;;;4.80;3.10;;;23.50;97.90;;;;;;5060196;28;20052;-68
2022/08/25 07:30:19;;;;;;;5.85;2.70;;;23.70;97.80;;;;;;5046355;28;20040;-67
2022/08/25 07:32:45;;;;;;;9.57;3.17;;;23.90;97.40;;;;;;5060959;28;20041;-67
2022/08/25 07:35:14;;;;;;;5.68;3.40;;;24.10;96.60;;;;;;5050277;28;20574;-68
2022/08/25 07:37:44;;;;;;;7.28;3.00;;;24.20;96.40;;;;;;5041948;28;20049;-67
2022/08/25 07:40:13;;;;;;;6.70;2.92;;;24.30;95.70;;;;;;5048156;28;20056;-68
2022/08/25 07:42:40;;;;;;;4.18;2.55;;;24.40;95.70;;;;;;5047061;28;20515;-68
2022/08/25 07:45:07;;;;;;;9.50;3.03;;;24.60;96.20;;;;;;5043722;28;20136;-69
2022/08/25 07:47:33;;;;;;;5.85;2.67;;;24.70;95.90;;;;;;5047630;28;20426;-67
2022/08/25 07:49:59;;;;;;;5.45;3.00;;;24.90;95.30;;;;;;5066180;28;20564;-68
2022/08/25 07:52:24;;;;;;;7.78;2.90;;;25.20;95.00;;;;;;5040278;28;20131;-68
2022/08/25 07:54:53;;;;;;;6.75;2.75;;;25.40;93.90;;;;;;5054710;28;20079;-68
2022/08/25 07:57:20;;;;;;;8.93;2.90;;;25.60;94.20;;;;;;5051544;28;20036;-68
2022/08/25 07:59:46;;;;;;;7.45;2.88;;;25.80;93.60;;;;;;5047067;28;20055;-69
2022/08/25 08:02:13;;;;;;;6.78;2.67;;;26.30;93.30;;;;;;5062572;28;20049;-70
2022/08/25 08:04:39;;;;;;;4.38;2.50;;;27.10;93.20;;;;;;5047761;28;20071;-68
2022/08/25 08:07:05;;;;;;;7.32;2.42;;;27.90;90.30;;;;;;5046225;28;20055;-68
2022/08/25 08:09:31;;;;;;;5.03;2.58;;;28.60;85.10;;;;;;5046743;28;20456;-70
2022/08/25 08:11:57;;;;;;;7.05;3.13;;;29.10;82.40;;;;;;5030253;28;20045;-69
2022/08/25 08:14:23;;;;;;;5.82;2.80;;;29.60;76.50;;;;;;5045458;28;20552;-69
2022/08/25 08:16:49;;;;;;;4.45;2.53;;;29.80;74.40;;;;;;5044950;28;20057;-69
2022/08/25 08:19:15;;;;;;;3.58;2.58;;;30.00;73.50;;;;;;5037446;28;20121;-69
2022/08/25 08:21:41;;;;;;;8.73;2.50;;;30.20;72.30;;;;;;5042872;28;20623;-69
2022/08/25 08:24:08;;;;;;;4.68;2.15;;;30.50;70.90;;;;;;5060007;28;20131;-70
2022/08/25 08:26:33;;;;;;;6.40;2.03;;;30.70;69.50;;;;;;5065636;28;20049;-69
2022/08/25 08:29:00;;;;;;;8.20;2.85;;;30.80;67.40;;;;;;5045707;28;20279;-69
2022/08/25 08:31:27;;;;;;;6.63;2.70;;;30.80;66.90;;;;;;5064562;28;20130;-67
2022/08/25 08:33:54;;;;;;;3.03;2.13;;;30.90;65.30;;;;;;5043815;28;20620;-67
2022/08/25 08:36:21;;;;;;;6.50;2.10;;;31.00;65.20;;;;;;5062307;28;20051;-67
2022/08/25 08:38:48;;;;;;;7.05;2.28;;;31.00;63.40;;;;;;5042557;28;20182;-67
2022/08/25 08:44:43;;;;;;;4.53;1.92;;;31.10;63.60;;;;;;5034363;28;20041;-69
2022/08/25 08:47:15;;;;;;;5.72;2.45;;;31.40;62.00;;;;;;5063682;28;20047;-67
2022/08/25 08:49:44;;;;;;;7.05;2.13;;;31.40;61.10;;;;;;5063251;28;20048;-68
2022/08/25 08:52:14;;;;;;;4.07;1.90;;;31.40;61.40;;;;;;5062275;28;20140;-68
2022/08/25 08:54:42;;;;;;;6.18;1.98;;;31.70;61.00;;;;;;5062423;28;20587;-68
2022/08/25 08:57:17;;;;;;;5.30;2.10;;;32.00;62.60;;;;;;5047937;28;20349;-69
2022/08/25 08:59:59;;;;;;;4.15;2.00;;;32.40;60.10;;;;;;5047600;28;21049;-68
2022/08/25 09:02:30;;;;;;;7.03;2.03;;;32.60;60.30;;;;;;5044812;28;20377;-68
2022/08/25 09:05:02;;;;;;;4.68;1.83;;;33.00;58.80;;;;;;5048243;28;20363;-68
2022/08/25 09:07:36;;;;;;;5.00;2.42;;;32.90;56.90;;;;;;5055919;28;20536;-68
2022/08/25 09:10:03;;;;;;;2.92;2.00;;;32.90;58.30;;;;;;5037500;28;20055;-69
2022/08/25 09:12:57;;;;;;;5.40;1.85;;;33.00;57.40;;;;;;5050192;28;20111;-68
2022/08/25 09:18:39;;;;;;;3.92;2.00;;;33.40;56.40;;;;;;5050222;28;19942;-68
2022/08/25 09:21:27;;;;;;;4.05;1.75;;;33.50;56.80;;;;;;5061179;28;20509;-68
2022/08/25 09:23:55;;;;;;;3.75;1.83;;;33.50;53.70;;;;;;5041491;28;20496;-70
2022/08/25 09:26:35;;;;;;;8.40;1.67;;;33.60;53.20;;;;;;5065430;28;20412;-69
2022/08/25 09:29:19;;;;;;;6.22;1.73;;;33.50;50.20;;;;;;5038532;28;20088;-68
2022/08/25 09:31:47;;;;;;;2.88;1.60;;;33.20;51.90;;;;;;5040914;28;20064;-68
2022/08/25 09:34:19;;;;;;;4.93;1.30;;;33.30;52.20;;;;;;5059958;28;20041;-68
2022/08/25 09:36:47;;;;;;;3.43;1.20;;;33.40;50.80;;;;;;5049355;28;20063;-67
2022/08/25 09:39:13;;;;;;;6.28;1.50;;;33.60;51.20;;;;;;5043466;28;20052;-68
2022/08/25 09:41:52;;;;;;;2.95;1.20;;;33.70;51.30;;;;;;5042149;28;20048;-69
2022/08/25 09:44:32;;;;;;;3.55;1.30;;;33.90;51.30;;;;;;5059970;28;20084;-68
2022/08/25 09:47:06;;;;;;;4.38;1.20;;;34.00;49.20;;;;;;5042457;28;20068;-63
2022/08/25 09:49:38;;;;;;;3.88;1.45;;;33.80;48.90;;;;;;5044434;28;20504;-64
2022/08/25 09:52:40;;;;;;;5.22;1.20;;;33.80;48.90;;;;;;5066907;28;20124;-64
2022/08/25 09:55:12;;;;;;;3.83;1.38;;;33.90;47.60;;;;;;5007229;28;20243;-63
2022/08/25 09:57:53;;;;;;;4.50;1.35;;;33.90;46.50;;;;;;5057308;28;20126;-68
2022/08/25 10:00:24;;;;;;;2.75;1.45;;;33.80;47.10;;;;;;5034778;28;20412;-68
2022/08/25 10:03:17;;;;;;;5.95;1.52;;;33.80;45.90;;;;;;5061696;28;20033;-66
2022/08/25 10:05:57;;;;;;;3.60;1.20;;;33.50;45.70;;;;;;5066197;28;20052;-67
2022/08/25 10:08:44;;;;;;;2.08;1.10;;;33.30;45.50;;;;;;5044180;28;20080;-67
2022/08/25 10:11:14;;;;;;;6.35;1.40;;;33.40;46.90;;;;;;5066204;28;20047;-68
2022/08/25 10:13:45;;;;;;;5.25;1.10;;;33.50;47.00;;;;;;5067576;28;20435;-66
2022/08/25 10:16:26;;;;;;;2.50;1.35;;;33.60;44.70;;;;;;5059589;28;20057;-67
2022/08/25 10:19:03;;;;;;;3.38;1.33;;;33.70;46.20;;;;;;5040436;28;20071;-65
2022/08/25 10:21:29;;;;;;;6.45;1.48;;;33.90;48.20;;;;;;5066633;28;20052;-65
2022/08/25 10:23:55;;;;;;;4.57;1.45;;;34.20;46.60;;;;;;5064696;28;20285;-65
2022/08/25 10:26:45;;;;;;;3.78;1.40;;;34.30;45.30;;;;;;5065618;28;20123;-65
2022/08/25 10:29:22;;;;;;;3.28;1.80;;;34.40;44.10;;;;;;5064249;28;20388;-68
2022/08/25 10:32:16;;;;;;;3.40;1.30;;;34.10;44.10;;;;;;5068056;28;20432;-69
2022/08/25 10:34:48;;;;;;;2.85;1.67;;;33.90;42.90;;;;;;5060216;28;20044;-68
2022/08/25 10:37:35;;;;;;;2.20;1.30;;;33.70;44.30;;;;;;5065558;28;20041;-68
2022/08/25 10:40:34;;;;;;;3.60;1.42;;;33.70;42.70;;;;;;5063063;28;20124;-68
2022/08/25 10:43:05;;;;;;;4.30;1.65;;;33.60;43.60;;;;;;5059697;28;20041;-68
2022/08/25 10:45:44;;;;;;;3.60;1.90;;;33.60;45.10;;;;;;5061530;28;20119;-68
2022/08/25 10:48:12;;;;;;;2.92;1.60;;;33.70;45.00;;;;;;5067752;28;20108;-66
2022/08/25 10:51:00;;;;;;;2.60;1.20;;;33.70;44.10;;;;;;5063942;28;20036;-66
2022/08/25 10:53:31;;;;;;;4.28;1.30;;;33.80;44.00;;;;;;5057481;28;20040;-67
2022/08/25 10:56:16;;;;;;;2.80;1.27;;;33.80;43.80;;;;;;5066503;28;20036;-69
2022/08/25 10:58:54;;;;;;;5.18;1.83;;;33.90;44.40;;;;;;5063241;28;20037;-68
2022/08/25 11:01:39;;;;;;;3.88;1.13;;;33.90;43.10;;;;;;5062118;28;20182;-68
2022/08/25 11:04:34;;;;;;;4.55;2.10;;;33.90;43.60;;;;;;5041764;28;20045;-68
2022/08/25 11:07:06;;;;;;;3.70;2.38;;;34.10;43.60;;;;;;5058683;28;20091;-68
2022/08/25 11:09:38;;;;;;;4.10;1.20;;;34.10;42.90;;;;;;5066781;28;20582;-68
2022/08/25 11:12:13;;;;;;;2.67;1.40;;;34.40;43.80;;;;;;5064976;28;20036;-66
2022/08/25 11:15:13;;;;;;;5.22;1.55;;;34.60;43.50;;;;;;5063164;28;20416;-66
2022/08/25 11:17:52;;;;;;;4.75;1.00;;;34.70;42.60;;;;;;5022668;28;20057;-66
2022/08/25 11:20:22;;;;;;;3.58;1.70;;;34.70;43.40;;;;;;5066189;28;20075;-67
2022/08/25 11:23:12;;;;;;;5.53;1.80;;;34.90;42.90;;;;;;5046649;28;20052;-68
2022/08/25 11:25:51;;;;;;;4.57;2.40;;;35.00;41.70;;;;;;5061320;28;20045;-68
2022/08/25 11:28:29;;;;;;;3.92;2.10;;;35.00;41.60;;;;;;5048997;28;20623;-68
2022/08/25 11:30:58;;;;;;;3.40;1.85;;;35.20;42.10;;;;;;5056027;28;20493;-68
2022/08/25 11:33:26;;;;;;;5.18;1.48;;;35.20;42.40;;;;;;5065347;28;20045;-68
2022/08/25 11:36:03;;;;;;;3.15;1.02;;;35.20;41.90;;;;;;5069156;28;20041;-68
2022/08/25 11:39:07;;;;;;;2.60;1.10;;;35.30;40.50;;;;;;5065417;28;20508;-68
2022/08/25 11:41:59;;;;;;;4.20;1.15;;;35.50;39.00;;;;;;5064912;28;20033;-68
2022/08/25 11:44:40;;;;;;;4.30;1.00;;;35.70;40.20;;;;;;5064739;28;20040;-69
2022/08/25 11:47:26;;;;;;;2.88;1.10;;;35.70;40.00;;;;;;5059941;28;20044;-65
2022/08/25 11:49:56;;;;;;;5.47;1.40;;;35.60;40.20;;;;;;5063373;28;20505;-69
2022/08/25 11:52:42;;;;;;;2.28;1.30;;;35.60;39.60;;;;;;5063463;28;20048;-68
2022/08/25 11:55:16;;;;;;;4.93;1.15;;;35.80;39.30;;;;;;5063165;28;20036;-68
2022/08/25 11:57:43;;;;;;;3.15;1.00;;;35.90;38.20;;;;;;5062472;28;20037;-68
2022/08/25 12:00:14;;;;;;;2.72;1.10;;;35.90;37.50;;;;;;5043408;28;20056;-69
2022/08/25 12:02:44;;;;;;;3.03;1.08;;;35.90;37.90;;;;;;5060139;28;20052;-69
2022/08/25 12:05:20;;;;;;;3.33;1.70;;;36.00;37.80;;;;;;5048485;28;20041;-69
2022/08/25 12:07:46;;;;;;;3.72;1.77;;;36.30;36.70;;;;;;5063825;28;20131;-70
2022/08/25 12:10:23;;;;;;;6.35;4.93;;;36.00;36.30;;;;;;5068953;28;20581;-71
2022/08/25 12:13:37;;;;;;;5.20;1.70;;;35.90;37.10;;;;;;5045990;28;20073;-69
2022/08/25 12:16:04;;;;;;;4.97;1.30;;;35.90;37.30;;;;;;5049084;28;20083;-69
2022/08/25 12:18:29;;;;;;;2.35;1.15;;;35.80;38.00;;;;;;5038822;28;20102;-69
2022/08/25 12:20:55;;;;;;;4.13;1.33;;;36.00;38.20;;;;;;5067303;28;20456;-69
2022/08/25 12:23:30;;;;;;;3.63;1.30;;;36.30;38.40;;;;;;5058888;28;20434;-69
2022/08/25 12:26:00;;;;;;;2.92;1.40;;;36.60;38.00;;;;;;5047665;28;20032;-68
2022/08/25 12:28:37;;;;;;;2.47;1.25;;;36.60;37.60;;;;;;5063948;28;20079;-69
2022/08/25 12:31:30;;;;;;;3.60;1.10;;;36.80;37.70;;;;;;5045668;28;20033;-69
2022/08/25 12:34:24;;;;;;;4.70;1.42;;;36.70;36.10;;;;;;5046842;28;20105;-68
2022/08/25 12:37:03;;;;;;;2.58;1.25;;;36.60;36.10;;;;;;5049399;28;20381;-68
2022/08/25 12:39:36;;;;;;;3.25;1.15;;;36.40;36.10;;;;;;5040041;28;20025;-68
2022/08/25 12:42:05;;;;;;;3.75;1.10;;;36.20;35.60;;;;;;5036200;28;20118;-69
2022/08/25 12:44:46;;;;;;;4.05;1.33;;;36.00;37.40;;;;;;5055929;28;21213;-69
2022/08/25 12:47:18;;;;;;;2.13;1.00;;;36.30;37.70;;;;;;5041824;28;20138;-69
2022/08/25 12:49:45;;;;;;;2.42;0.98;;;36.60;37.30;;;;;;5041607;28;20033;-68
2022/08/25 12:52:19;;;;;;;2.90;1.30;;;36.80;37.50;;;;;;5044397;28;20044;-70
2022/08/25 12:54:47;;;;;;;3.80;1.25;;;36.90;36.20;;;;;;5043205;28;20186;-69
2022/08/25 12:57:38;;;;;;;2.95;1.20;;;36.90;36.20;;;;;;5034656;28;20488;-69
2022/08/25 13:00:25;;;;;;;3.95;1.40;;;36.70;35.30;;;;;;5046794;28;20063;-68
2022/08/25 13:03:21;;;;;;;2.00;0.77;;;36.50;36.10;;;;;;5038393;28;20044;-69
2022/08/25 13:06:43;;;;;;;2.70;1.30;;;36.40;35.80;;;;;;5028899;28;20098;-63
2022/08/25 13:09:38;;;;;;;4.90;3.13;;;36.50;36.80;;;;;;4966193;28;20395;-64
2022/08/25 13:12:16;;;;;;;1.42;0.98;;;36.50;36.30;;;;;;5062299;28;20040;-64
2022/08/25 13:14:44;;;;;;;4.72;1.17;;;36.50;37.40;;;;;;5057674;28;20411;-64
2022/08/25 13:17:11;;;;;;;5.03;1.20;;;36.60;38.30;;;;;;5062364;28;20052;-64
2022/08/25 13:19:37;;;;;;;2.72;1.10;;;36.30;36.50;;;;;;5059784;28;20044;-63
2022/08/25 13:22:14;;;;;;;5.05;1.30;;;36.20;37.20;;;;;;5058428;28;20036;-65